sensor_id;sensor_type;location;lat;lon;timestamp;temperature;humidity
580;DHT22;276;48.392;9.950;2023-12-22T00:02:01;9.40;99.90
580;DHT22;276;48.392;9.950;2023-12-22T00:04:27;9.50;99.90
580;DHT22;276;48.392;9.950;2023-12-22T00:06:52;9.50;99.90
580;DHT22;276;48.392;9.950;2023-12-22T00:09:22;9.50;99.90
580;DHT22;276;48.392;9.950;2023-12-22T00:11:48;9.40;99.90
580;DHT22;276;48.392;9.950;2023-12-22T00:14:21;9.30;99.90
580;DHT22;276;48.392;9.950;2023-12-22T00:16:49;9.20;99.90
580;DHT22;276;48.392;9.950;2023-12-22T00:19:17;9.10;99.90
580;DHT22;276;48.392;9.950;2023-12-22T00:21:42;9.00;99.90
580;DHT22;276;48.392;9.950;2023-12-22T00:24:08;8.90;99.90
580;DHT22;276;48.392;9.950;2023-12-22T00:26:36;8.80;99.90
580;DHT22;276;48.392;9.950;2023-12-22T00:29:02;8.80;99.90
580;DHT22;276;48.392;9.950;2023-12-22T00:31:27;8.80;99.90
580;DHT22;276;48.392;9.950;2023-12-22T00:33:55;8.80;99.90
580;DHT22;276;48.392;9.950;2023-12-22T00:36:23;8.80;99.90
580;DHT22;276;48.392;9.950;2023-12-22T00:38:50;8.80;99.90
580;DHT22;276;48.392;9.950;2023-12-22T00:41:16;8.70;99.90
580;DHT22;276;48.392;9.950;2023-12-22T00:43:41;8.70;99.90
580;DHT22;276;48.392;9.950;2023-12-22T00:46:09;8.70;99.90
580;DHT22;276;48.392;9.950;2023-12-22T00:48:37;8.70;99.90
580;DHT22;276;48.392;9.950;2023-12-22T00:51:03;8.70;99.90
580;DHT22;276;48.392;9.950;2023-12-22T00:53:31;8.80;99.90
580;DHT22;276;48.392;9.950;2023-12-22T00:56:02;8.80;99.90
580;DHT22;276;48.392;9.950;2023-12-22T00:58:31;8.80;99.90
580;DHT22;276;48.392;9.950;2023-12-22T01:00:59;8.80;99.90
580;DHT22;276;48.392;9.950;2023-12-22T01:03:27;8.70;99.90
580;DHT22;276;48.392;9.950;2023-12-22T01:05:52;8.70;99.90
580;DHT22;276;48.392;9.950;2023-12-22T01:08:19;8.70;99.90
580;DHT22;276;48.392;9.950;2023-12-22T01:10:46;8.70;99.90
580;DHT22;276;48.392;9.950;2023-12-22T01:13:16;8.80;99.90
580;DHT22;276;48.392;9.950;2023-12-22T01:15:44;8.80;99.90
580;DHT22;276;48.392;9.950;2023-12-22T01:18:10;8.80;99.90
580;DHT22;276;48.392;9.950;2023-12-22T01:20:36;8.80;99.90
580;DHT22;276;48.392;9.950;2023-12-22T01:23:04;8.80;99.90
580;DHT22;276;48.392;9.950;2023-12-22T01:25:32;8.80;99.90
580;DHT22;276;48.392;9.950;2023-12-22T01:27:57;8.80;99.90
580;DHT22;276;48.392;9.950;2023-12-22T01:30:23;8.80;99.90
580;DHT22;276;48.392;9.950;2023-12-22T01:32:48;8.80;99.90
580;DHT22;276;48.392;9.950;2023-12-22T01:35:16;8.80;99.90
580;DHT22;276;48.392;9.950;2023-12-22T01:37:42;8.80;99.90
580;DHT22;276;48.392;9.950;2023-12-22T01:40:08;8.80;99.90
580;DHT22;276;48.392;9.950;2023-12-22T01:42:36;8.90;99.90
580;DHT22;276;48.392;9.950;2023-12-22T01:45:02;8.90;99.90
580;DHT22;276;48.392;9.950;2023-12-22T01:47:30;8.90;99.90
580;DHT22;276;48.392;9.950;2023-12-22T01:49:55;8.90;99.90
580;DHT22;276;48.392;9.950;2023-12-22T01:52:22;8.90;99.90
580;DHT22;276;48.392;9.950;2023-12-22T01:54:49;8.90;99.90
580;DHT22;276;48.392;9.950;2023-12-22T01:57:16;8.90;99.90
580;DHT22;276;48.392;9.950;2023-12-22T01:59:45;8.90;99.90
580;DHT22;276;48.392;9.950;2023-12-22T02:02:12;8.90;99.90
580;DHT22;276;48.392;9.950;2023-12-22T02:04:37;8.90;99.90
580;DHT22;276;48.392;9.950;2023-12-22T02:07:05;8.90;99.90
580;DHT22;276;48.392;9.950;2023-12-22T02:09:33;8.90;99.90
580;DHT22;276;48.392;9.950;2023-12-22T02:11:59;9.00;99.90
580;DHT22;276;48.392;9.950;2023-12-22T02:14:24;9.00;99.90
580;DHT22;276;48.392;9.950;2023-12-22T02:22:05;8.90;99.90
580;DHT22;276;48.392;9.950;2023-12-22T02:24:32;8.80;99.90
580;DHT22;276;48.392;9.950;2023-12-22T02:29:52;8.80;99.90
580;DHT22;276;48.392;9.950;2023-12-22T02:32:27;8.80;99.90
580;DHT22;276;48.392;9.950;2023-12-22T02:34:56;8.80;99.90
580;DHT22;276;48.392;9.950;2023-12-22T02:37:23;8.80;99.90
580;DHT22;276;48.392;9.950;2023-12-22T02:39:53;8.80;99.90
580;DHT22;276;48.392;9.950;2023-12-22T02:42:21;8.80;99.90
580;DHT22;276;48.392;9.950;2023-12-22T02:44:51;8.80;99.90
580;DHT22;276;48.392;9.950;2023-12-22T02:47:20;8.80;99.90
580;DHT22;276;48.392;9.950;2023-12-22T02:49:45;8.80;99.90
580;DHT22;276;48.392;9.950;2023-12-22T02:52:11;8.70;99.90
580;DHT22;276;48.392;9.950;2023-12-22T02:54:39;8.80;99.90
580;DHT22;276;48.392;9.950;2023-12-22T02:57:09;8.70;99.90
580;DHT22;276;48.392;9.950;2023-12-22T02:59:34;8.70;99.90
580;DHT22;276;48.392;9.950;2023-12-22T03:02:04;8.70;99.90
580;DHT22;276;48.392;9.950;2023-12-22T03:04:32;8.70;99.90
580;DHT22;276;48.392;9.950;2023-12-22T03:06:57;8.70;99.90
580;DHT22;276;48.392;9.950;2023-12-22T03:09:23;8.70;99.90
580;DHT22;276;48.392;9.950;2023-12-22T03:11:49;8.70;99.90
580;DHT22;276;48.392;9.950;2023-12-22T03:14:20;8.70;99.90
580;DHT22;276;48.392;9.950;2023-12-22T03:16:45;8.70;99.90
580;DHT22;276;48.392;9.950;2023-12-22T03:19:11;8.70;99.90
580;DHT22;276;48.392;9.950;2023-12-22T03:21:39;8.70;99.90
580;DHT22;276;48.392;9.950;2023-12-22T03:24:09;8.70;99.90
580;DHT22;276;48.392;9.950;2023-12-22T03:26:35;8.70;99.90
580;DHT22;276;48.392;9.950;2023-12-22T03:29:00;8.70;99.90
580;DHT22;276;48.392;9.950;2023-12-22T03:31:29;8.70;99.90
580;DHT22;276;48.392;9.950;2023-12-22T03:33:57;8.70;99.90
580;DHT22;276;48.392;9.950;2023-12-22T03:36:22;8.60;99.90
580;DHT22;276;48.392;9.950;2023-12-22T03:38:48;8.70;99.90
580;DHT22;276;48.392;9.950;2023-12-22T03:41:13;8.60;99.90
580;DHT22;276;48.392;9.950;2023-12-22T03:43:43;8.70;99.90
580;DHT22;276;48.392;9.950;2023-12-22T03:46:13;8.70;99.90
580;DHT22;276;48.392;9.950;2023-12-22T03:48:39;8.70;99.90
580;DHT22;276;48.392;9.950;2023-12-22T03:51:05;8.70;99.90
580;DHT22;276;48.392;9.950;2023-12-22T03:53:30;8.70;99.90
580;DHT22;276;48.392;9.950;2023-12-22T03:55:58;8.70;99.90
580;DHT22;276;48.392;9.950;2023-12-22T03:58:26;8.70;99.90
580;DHT22;276;48.392;9.950;2023-12-22T04:00:55;8.70;99.90
580;DHT22;276;48.392;9.950;2023-12-22T04:03:21;8.70;99.90
580;DHT22;276;48.392;9.950;2023-12-22T04:05:47;8.70;99.90
580;DHT22;276;48.392;9.950;2023-12-22T04:08:12;8.70;99.90
580;DHT22;276;48.392;9.950;2023-12-22T04:10:40;8.70;99.90
580;DHT22;276;48.392;9.950;2023-12-22T04:13:08;8.80;99.90
580;DHT22;276;48.392;9.950;2023-12-22T04:15:34;8.80;99.90
580;DHT22;276;48.392;9.950;2023-12-22T04:18:02;8.80;99.90
580;DHT22;276;48.392;9.950;2023-12-22T04:20:30;8.80;99.90
580;DHT22;276;48.392;9.950;2023-12-22T04:22:57;8.80;99.90
580;DHT22;276;48.392;9.950;2023-12-22T04:25:25;8.90;99.90
580;DHT22;276;48.392;9.950;2023-12-22T04:27:53;8.90;99.90
580;DHT22;276;48.392;9.950;2023-12-22T04:30:19;8.90;99.90
580;DHT22;276;48.392;9.950;2023-12-22T04:32:47;8.90;99.90
580;DHT22;276;48.392;9.950;2023-12-22T04:35:13;8.90;99.90
580;DHT22;276;48.392;9.950;2023-12-22T04:37:38;8.90;99.90
580;DHT22;276;48.392;9.950;2023-12-22T04:40:04;8.90;99.90
580;DHT22;276;48.392;9.950;2023-12-22T04:42:32;8.90;99.90
580;DHT22;276;48.392;9.950;2023-12-22T04:44:58;8.90;99.90
580;DHT22;276;48.392;9.950;2023-12-22T04:47:28;8.90;99.90
580;DHT22;276;48.392;9.950;2023-12-22T04:49:56;8.80;99.90
580;DHT22;276;48.392;9.950;2023-12-22T04:52:24;8.80;99.90
580;DHT22;276;48.392;9.950;2023-12-22T04:54:49;8.70;99.90
580;DHT22;276;48.392;9.950;2023-12-22T04:57:15;8.70;99.90
580;DHT22;276;48.392;9.950;2023-12-22T04:59:40;8.70;99.90
580;DHT22;276;48.392;9.950;2023-12-22T05:02:11;8.60;99.90
580;DHT22;276;48.392;9.950;2023-12-22T05:04:36;8.60;99.90
580;DHT22;276;48.392;9.950;2023-12-22T05:07:04;8.60;99.90
580;DHT22;276;48.392;9.950;2023-12-22T05:09:35;8.60;99.90
580;DHT22;276;48.392;9.950;2023-12-22T05:12:05;8.60;99.90
580;DHT22;276;48.392;9.950;2023-12-22T05:14:33;8.60;99.90
580;DHT22;276;48.392;9.950;2023-12-22T05:17:04;8.60;99.90
580;DHT22;276;48.392;9.950;2023-12-22T05:19:32;8.50;99.90
580;DHT22;276;48.392;9.950;2023-12-22T05:22:00;8.50;99.90
580;DHT22;276;48.392;9.950;2023-12-22T05:24:25;8.50;99.90
580;DHT22;276;48.392;9.950;2023-12-22T05:26:52;8.50;99.90
580;DHT22;276;48.392;9.950;2023-12-22T05:29:18;8.40;99.90
580;DHT22;276;48.392;9.950;2023-12-22T05:31:45;8.40;99.90
580;DHT22;276;48.392;9.950;2023-12-22T05:34:13;8.50;99.90
580;DHT22;276;48.392;9.950;2023-12-22T05:36:41;8.50;99.90
580;DHT22;276;48.392;9.950;2023-12-22T05:39:07;8.50;99.90
580;DHT22;276;48.392;9.950;2023-12-22T05:41:35;8.50;99.90
580;DHT22;276;48.392;9.950;2023-12-22T05:44:04;8.50;99.90
580;DHT22;276;48.392;9.950;2023-12-22T05:46:37;8.50;99.90
580;DHT22;276;48.392;9.950;2023-12-22T05:49:04;8.50;99.90
580;DHT22;276;48.392;9.950;2023-12-22T05:51:38;8.60;99.90
580;DHT22;276;48.392;9.950;2023-12-22T05:54:05;8.60;99.90
580;DHT22;276;48.392;9.950;2023-12-22T05:56:35;8.60;99.90
580;DHT22;276;48.392;9.950;2023-12-22T05:59:01;8.60;99.90
580;DHT22;276;48.392;9.950;2023-12-22T06:01:27;8.60;99.90
580;DHT22;276;48.392;9.950;2023-12-22T06:03:53;8.60;99.90
580;DHT22;276;48.392;9.950;2023-12-22T06:06:24;8.60;99.90
580;DHT22;276;48.392;9.950;2023-12-22T06:08:55;8.60;99.90
580;DHT22;276;48.392;9.950;2023-12-22T06:11:21;8.60;99.90
580;DHT22;276;48.392;9.950;2023-12-22T06:13:47;8.70;99.90
580;DHT22;276;48.392;9.950;2023-12-22T06:16:16;8.70;99.90
580;DHT22;276;48.392;9.950;2023-12-22T06:18:43;8.70;99.90
580;DHT22;276;48.392;9.950;2023-12-22T06:21:12;8.70;99.90
580;DHT22;276;48.392;9.950;2023-12-22T06:23:37;8.70;99.90
580;DHT22;276;48.392;9.950;2023-12-22T06:26:12;8.70;99.90
580;DHT22;276;48.392;9.950;2023-12-22T06:28:38;8.70;99.90
580;DHT22;276;48.392;9.950;2023-12-22T06:31:07;8.70;99.90
580;DHT22;276;48.392;9.950;2023-12-22T06:33:33;8.60;99.90
580;DHT22;276;48.392;9.950;2023-12-22T06:36:01;8.60;99.90
580;DHT22;276;48.392;9.950;2023-12-22T06:38:28;8.60;99.90
580;DHT22;276;48.392;9.950;2023-12-22T06:40:54;8.50;99.90
580;DHT22;276;48.392;9.950;2023-12-22T06:43:22;8.50;99.90
580;DHT22;276;48.392;9.950;2023-12-22T06:45:50;8.50;99.90
580;DHT22;276;48.392;9.950;2023-12-22T06:48:18;8.40;99.90
580;DHT22;276;48.392;9.950;2023-12-22T06:50:44;8.40;99.90
580;DHT22;276;48.392;9.950;2023-12-22T06:53:14;8.40;99.90
580;DHT22;276;48.392;9.950;2023-12-22T06:55:42;8.30;99.90
580;DHT22;276;48.392;9.950;2023-12-22T06:58:08;8.30;99.90
580;DHT22;276;48.392;9.950;2023-12-22T07:00:35;8.20;99.90
580;DHT22;276;48.392;9.950;2023-12-22T07:03:03;8.20;99.90
580;DHT22;276;48.392;9.950;2023-12-22T07:05:32;8.20;99.90
580;DHT22;276;48.392;9.950;2023-12-22T07:08:00;8.20;99.90
580;DHT22;276;48.392;9.950;2023-12-22T07:10:28;8.10;99.90
580;DHT22;276;48.392;9.950;2023-12-22T07:12:59;8.20;99.90
580;DHT22;276;48.392;9.950;2023-12-22T07:15:27;8.20;99.90
580;DHT22;276;48.392;9.950;2023-12-22T07:17:56;8.20;99.90
580;DHT22;276;48.392;9.950;2023-12-22T07:20:24;8.20;99.90
580;DHT22;276;48.392;9.950;2023-12-22T07:22:49;8.20;99.90
580;DHT22;276;48.392;9.950;2023-12-22T07:25:16;8.20;99.90
580;DHT22;276;48.392;9.950;2023-12-22T07:27:44;8.20;99.90
580;DHT22;276;48.392;9.950;2023-12-22T07:30:10;8.20;99.90
580;DHT22;276;48.392;9.950;2023-12-22T07:32:44;8.20;99.90
580;DHT22;276;48.392;9.950;2023-12-22T07:35:10;8.20;99.90
580;DHT22;276;48.392;9.950;2023-12-22T07:37:38;8.30;99.90
580;DHT22;276;48.392;9.950;2023-12-22T07:40:04;8.30;99.90
580;DHT22;276;48.392;9.950;2023-12-22T07:42:32;8.30;99.90
580;DHT22;276;48.392;9.950;2023-12-22T07:45:00;8.30;99.90
580;DHT22;276;48.392;9.950;2023-12-22T07:47:25;8.30;99.90
580;DHT22;276;48.392;9.950;2023-12-22T07:49:51;8.40;99.90
580;DHT22;276;48.392;9.950;2023-12-22T07:52:19;8.30;99.90
580;DHT22;276;48.392;9.950;2023-12-22T07:54:47;8.40;99.90
580;DHT22;276;48.392;9.950;2023-12-22T07:57:13;8.30;99.90
580;DHT22;276;48.392;9.950;2023-12-22T07:59:39;8.40;99.90
580;DHT22;276;48.392;9.950;2023-12-22T08:02:04;8.30;99.90
580;DHT22;276;48.392;9.950;2023-12-22T08:04:32;8.40;99.90
580;DHT22;276;48.392;9.950;2023-12-22T08:07:00;8.40;99.90
580;DHT22;276;48.392;9.950;2023-12-22T08:09:27;8.40;99.90
580;DHT22;276;48.392;9.950;2023-12-22T08:11:57;8.50;99.90
580;DHT22;276;48.392;9.950;2023-12-22T08:14:23;8.50;99.90
580;DHT22;276;48.392;9.950;2023-12-22T08:16:53;8.60;99.90
580;DHT22;276;48.392;9.950;2023-12-22T08:19:19;8.60;99.90
580;DHT22;276;48.392;9.950;2023-12-22T08:21:51;8.60;99.90
580;DHT22;276;48.392;9.950;2023-12-22T08:24:17;8.60;99.90
580;DHT22;276;48.392;9.950;2023-12-22T08:26:45;8.60;99.90
580;DHT22;276;48.392;9.950;2023-12-22T08:29:15;8.60;99.90
580;DHT22;276;48.392;9.950;2023-12-22T08:31:43;8.60;99.90
580;DHT22;276;48.392;9.950;2023-12-22T08:34:11;8.70;99.90
580;DHT22;276;48.392;9.950;2023-12-22T08:36:40;8.70;99.90
580;DHT22;276;48.392;9.950;2023-12-22T08:39:08;8.70;99.90
580;DHT22;276;48.392;9.950;2023-12-22T08:41:38;8.80;99.90
580;DHT22;276;48.392;9.950;2023-12-22T08:44:06;8.70;99.90
580;DHT22;276;48.392;9.950;2023-12-22T08:46:37;8.70;99.90
580;DHT22;276;48.392;9.950;2023-12-22T08:49:07;8.80;99.90
580;DHT22;276;48.392;9.950;2023-12-22T08:51:37;8.80;99.90
580;DHT22;276;48.392;9.950;2023-12-22T08:54:03;8.80;99.90
580;DHT22;276;48.392;9.950;2023-12-22T08:56:31;8.90;99.90
580;DHT22;276;48.392;9.950;2023-12-22T08:58:57;8.90;99.90
580;DHT22;276;48.392;9.950;2023-12-22T09:01:25;8.90;99.90
580;DHT22;276;48.392;9.950;2023-12-22T09:03:53;8.90;99.90
580;DHT22;276;48.392;9.950;2023-12-22T09:06:22;9.00;99.90
580;DHT22;276;48.392;9.950;2023-12-22T09:08:48;9.00;99.90
580;DHT22;276;48.392;9.950;2023-12-22T09:11:17;9.00;99.90
580;DHT22;276;48.392;9.950;2023-12-22T09:13:43;8.90;99.90
580;DHT22;276;48.392;9.950;2023-12-22T09:16:09;8.90;99.90
580;DHT22;276;48.392;9.950;2023-12-22T09:18:37;8.90;99.90
580;DHT22;276;48.392;9.950;2023-12-22T09:21:05;8.80;99.90
580;DHT22;276;48.392;9.950;2023-12-22T09:23:32;8.90;99.90
580;DHT22;276;48.392;9.950;2023-12-22T09:26:02;8.90;99.90
580;DHT22;276;48.392;9.950;2023-12-22T09:28:30;8.90;99.90
580;DHT22;276;48.392;9.950;2023-12-22T09:30:55;9.00;99.90
580;DHT22;276;48.392;9.950;2023-12-22T09:33:21;9.00;99.90
580;DHT22;276;48.392;9.950;2023-12-22T09:35:49;9.00;99.90
580;DHT22;276;48.392;9.950;2023-12-22T09:38:16;9.00;99.90
580;DHT22;276;48.392;9.950;2023-12-22T09:40:42;9.00;99.90
580;DHT22;276;48.392;9.950;2023-12-22T09:43:08;9.10;99.90
580;DHT22;276;48.392;9.950;2023-12-22T09:45:34;9.10;99.90
580;DHT22;276;48.392;9.950;2023-12-22T09:48:01;9.20;99.90
580;DHT22;276;48.392;9.950;2023-12-22T09:50:27;9.20;99.90
580;DHT22;276;48.392;9.950;2023-12-22T09:52:54;9.20;99.90
580;DHT22;276;48.392;9.950;2023-12-22T09:55:24;9.20;99.90
580;DHT22;276;48.392;9.950;2023-12-22T09:57:51;9.30;99.90
580;DHT22;276;48.392;9.950;2023-12-22T10:00:18;9.30;99.90
580;DHT22;276;48.392;9.950;2023-12-22T10:02:43;9.30;99.90
580;DHT22;276;48.392;9.950;2023-12-22T10:05:11;9.30;99.90
580;DHT22;276;48.392;9.950;2023-12-22T10:07:41;9.30;99.90
580;DHT22;276;48.392;9.950;2023-12-22T10:10:09;9.30;99.90
580;DHT22;276;48.392;9.950;2023-12-22T10:12:40;9.40;99.90
580;DHT22;276;48.392;9.950;2023-12-22T10:15:12;9.30;99.90
580;DHT22;276;48.392;9.950;2023-12-22T10:17:40;9.40;99.90
580;DHT22;276;48.392;9.950;2023-12-22T10:20:09;9.30;99.90
580;DHT22;276;48.392;9.950;2023-12-22T10:22:37;9.40;99.90
580;DHT22;276;48.392;9.950;2023-12-22T10:25:03;9.40;99.90
580;DHT22;276;48.392;9.950;2023-12-22T10:27:31;9.40;99.90
580;DHT22;276;48.392;9.950;2023-12-22T10:29:59;9.40;99.90
580;DHT22;276;48.392;9.950;2023-12-22T10:32:25;9.40;99.90
580;DHT22;276;48.392;9.950;2023-12-22T10:34:52;9.40;99.90
580;DHT22;276;48.392;9.950;2023-12-22T10:37:20;9.40;99.90
580;DHT22;276;48.392;9.950;2023-12-22T10:39:47;9.40;99.90
580;DHT22;276;48.392;9.950;2023-12-22T10:42:14;9.40;99.90
580;DHT22;276;48.392;9.950;2023-12-22T10:44:40;9.30;99.90
580;DHT22;276;48.392;9.950;2023-12-22T10:47:09;9.40;99.90
580;DHT22;276;48.392;9.950;2023-12-22T10:49:36;9.40;99.90
580;DHT22;276;48.392;9.950;2023-12-22T10:52:02;9.50;99.90
580;DHT22;276;48.392;9.950;2023-12-22T10:54:30;9.40;99.90
580;DHT22;276;48.392;9.950;2023-12-22T10:56:59;9.40;99.90
580;DHT22;276;48.392;9.950;2023-12-22T10:59:28;9.50;99.90
580;DHT22;276;48.392;9.950;2023-12-22T11:01:57;9.50;99.90
580;DHT22;276;48.392;9.950;2023-12-22T11:04:29;9.40;99.90
580;DHT22;276;48.392;9.950;2023-12-22T11:06:57;9.40;99.90
580;DHT22;276;48.392;9.950;2023-12-22T11:09:26;9.50;99.90
580;DHT22;276;48.392;9.950;2023-12-22T11:11:55;9.40;99.90
580;DHT22;276;48.392;9.950;2023-12-22T11:14:22;9.40;99.90
580;DHT22;276;48.392;9.950;2023-12-22T11:16:51;9.40;99.90
580;DHT22;276;48.392;9.950;2023-12-22T11:19:19;9.40;99.90
580;DHT22;276;48.392;9.950;2023-12-22T11:21:52;9.40;99.90
580;DHT22;276;48.392;9.950;2023-12-22T11:24:18;9.50;99.90
580;DHT22;276;48.392;9.950;2023-12-22T11:26:46;9.50;99.90
580;DHT22;276;48.392;9.950;2023-12-22T11:29:14;9.50;99.90
580;DHT22;276;48.392;9.950;2023-12-22T11:31:43;9.40;99.90
580;DHT22;276;48.392;9.950;2023-12-22T11:34:10;9.40;99.90
580;DHT22;276;48.392;9.950;2023-12-22T11:36:38;9.40;99.90
580;DHT22;276;48.392;9.950;2023-12-22T11:39:04;9.40;99.90
580;DHT22;276;48.392;9.950;2023-12-22T11:41:33;9.30;99.90
580;DHT22;276;48.392;9.950;2023-12-22T11:44:00;9.40;99.90
580;DHT22;276;48.392;9.950;2023-12-22T11:46:26;9.30;99.90
580;DHT22;276;48.392;9.950;2023-12-22T11:48:52;9.30;99.90
580;DHT22;276;48.392;9.950;2023-12-22T11:51:19;9.20;99.90
580;DHT22;276;48.392;9.950;2023-12-22T11:53:48;9.30;99.90
580;DHT22;276;48.392;9.950;2023-12-22T11:56:15;9.20;99.90
580;DHT22;276;48.392;9.950;2023-12-22T11:58:44;9.20;99.90
580;DHT22;276;48.392;9.950;2023-12-22T12:01:17;9.20;99.90
580;DHT22;276;48.392;9.950;2023-12-22T12:03:55;9.30;99.90
580;DHT22;276;48.392;9.950;2023-12-22T12:08:54;9.20;99.90
580;DHT22;276;48.392;9.950;2023-12-22T12:11:20;9.20;99.90
580;DHT22;276;48.392;9.950;2023-12-22T12:13:47;9.30;99.90
580;DHT22;276;48.392;9.950;2023-12-22T12:16:14;9.30;99.90
580;DHT22;276;48.392;9.950;2023-12-22T12:18:40;9.30;99.90
580;DHT22;276;48.392;9.950;2023-12-22T12:21:08;9.20;99.90
580;DHT22;276;48.392;9.950;2023-12-22T12:23:38;9.20;99.90
580;DHT22;276;48.392;9.950;2023-12-22T12:26:11;9.20;99.90
580;DHT22;276;48.392;9.950;2023-12-22T12:28:38;9.20;99.90
580;DHT22;276;48.392;9.950;2023-12-22T12:31:07;9.20;99.90
580;DHT22;276;48.392;9.950;2023-12-22T12:33:36;9.10;99.90
580;DHT22;276;48.392;9.950;2023-12-22T12:36:03;9.10;99.90
580;DHT22;276;48.392;9.950;2023-12-22T12:41:46;9.00;99.90
580;DHT22;276;48.392;9.950;2023-12-22T12:44:15;9.10;99.90
580;DHT22;276;48.392;9.950;2023-12-22T12:46:44;9.20;99.90
580;DHT22;276;48.392;9.950;2023-12-22T12:49:12;9.20;99.90
580;DHT22;276;48.392;9.950;2023-12-22T12:51:42;9.20;99.90
580;DHT22;276;48.392;9.950;2023-12-22T12:54:09;9.20;99.90
580;DHT22;276;48.392;9.950;2023-12-22T12:59:16;9.10;99.90
580;DHT22;276;48.392;9.950;2023-12-22T13:01:44;9.10;99.90
580;DHT22;276;48.392;9.950;2023-12-22T13:04:11;9.20;99.90
580;DHT22;276;48.392;9.950;2023-12-22T13:06:50;9.20;99.90
580;DHT22;276;48.392;9.950;2023-12-22T13:09:17;9.20;99.90
580;DHT22;276;48.392;9.950;2023-12-22T13:11:45;9.20;99.90
580;DHT22;276;48.392;9.950;2023-12-22T13:14:23;9.20;99.90
580;DHT22;276;48.392;9.950;2023-12-22T13:16:56;9.10;99.90
580;DHT22;276;48.392;9.950;2023-12-22T13:19:26;9.10;99.90
580;DHT22;276;48.392;9.950;2023-12-22T13:21:53;9.10;99.90
580;DHT22;276;48.392;9.950;2023-12-22T13:24:19;9.10;99.90
580;DHT22;276;48.392;9.950;2023-12-22T13:26:45;9.10;99.90
580;DHT22;276;48.392;9.950;2023-12-22T13:29:12;9.10;99.90
580;DHT22;276;48.392;9.950;2023-12-22T13:31:39;9.10;99.90
580;DHT22;276;48.392;9.950;2023-12-22T13:34:11;9.10;99.90
580;DHT22;276;48.392;9.950;2023-12-22T13:36:37;9.10;99.90
580;DHT22;276;48.392;9.950;2023-12-22T13:39:07;9.10;99.90
580;DHT22;276;48.392;9.950;2023-12-22T13:41:39;9.10;99.90
580;DHT22;276;48.392;9.950;2023-12-22T13:44:07;9.10;99.90
580;DHT22;276;48.392;9.950;2023-12-22T13:46:33;9.10;99.90
580;DHT22;276;48.392;9.950;2023-12-22T13:49:03;9.10;99.90
580;DHT22;276;48.392;9.950;2023-12-22T13:51:45;9.10;99.90
580;DHT22;276;48.392;9.950;2023-12-22T13:54:13;9.20;99.90
580;DHT22;276;48.392;9.950;2023-12-22T13:56:41;9.20;99.90
580;DHT22;276;48.392;9.950;2023-12-22T13:59:08;9.20;99.90
580;DHT22;276;48.392;9.950;2023-12-22T14:01:33;9.20;99.90
580;DHT22;276;48.392;9.950;2023-12-22T14:04:02;9.30;99.90
580;DHT22;276;48.392;9.950;2023-12-22T14:06:28;9.30;99.90
580;DHT22;276;48.392;9.950;2023-12-22T14:08:55;9.30;99.90
580;DHT22;276;48.392;9.950;2023-12-22T14:11:23;9.30;99.90
580;DHT22;276;48.392;9.950;2023-12-22T14:13:51;9.30;99.90
580;DHT22;276;48.392;9.950;2023-12-22T14:16:17;9.40;99.90
580;DHT22;276;48.392;9.950;2023-12-22T14:18:45;9.40;99.90
580;DHT22;276;48.392;9.950;2023-12-22T14:21:11;9.40;99.90
580;DHT22;276;48.392;9.950;2023-12-22T14:23:39;9.40;99.90
580;DHT22;276;48.392;9.950;2023-12-22T14:26:04;9.40;99.90
580;DHT22;276;48.392;9.950;2023-12-22T14:28:31;9.50;99.90
580;DHT22;276;48.392;9.950;2023-12-22T14:30:56;9.50;99.90
580;DHT22;276;48.392;9.950;2023-12-22T14:33:24;9.50;99.90
580;DHT22;276;48.392;9.950;2023-12-22T14:35:50;9.50;99.90
580;DHT22;276;48.392;9.950;2023-12-22T14:38:18;9.60;99.90
580;DHT22;276;48.392;9.950;2023-12-22T14:40:44;9.60;99.90
580;DHT22;276;48.392;9.950;2023-12-22T14:43:12;9.70;99.90
580;DHT22;276;48.392;9.950;2023-12-22T14:45:40;9.70;99.90
580;DHT22;276;48.392;9.950;2023-12-22T14:48:08;9.80;99.90
580;DHT22;276;48.392;9.950;2023-12-22T14:50:36;9.70;99.90
580;DHT22;276;48.392;9.950;2023-12-22T14:53:04;9.80;99.90
580;DHT22;276;48.392;9.950;2023-12-22T14:55:32;9.80;99.90
580;DHT22;276;48.392;9.950;2023-12-22T14:57:58;9.80;99.90
580;DHT22;276;48.392;9.950;2023-12-22T15:00:28;9.80;99.90
580;DHT22;276;48.392;9.950;2023-12-22T15:02:54;9.80;99.90
580;DHT22;276;48.392;9.950;2023-12-22T15:05:19;9.90;99.90
580;DHT22;276;48.392;9.950;2023-12-22T15:07:47;9.90;99.90
580;DHT22;276;48.392;9.950;2023-12-22T15:10:13;9.90;99.90
580;DHT22;276;48.392;9.950;2023-12-22T15:12:43;9.90;99.90
580;DHT22;276;48.392;9.950;2023-12-22T15:15:09;10.00;99.90
580;DHT22;276;48.392;9.950;2023-12-22T15:17:36;9.90;99.90
580;DHT22;276;48.392;9.950;2023-12-22T15:20:02;9.90;99.90
580;DHT22;276;48.392;9.950;2023-12-22T15:22:31;10.00;99.90
580;DHT22;276;48.392;9.950;2023-12-22T15:24:59;9.90;99.90
580;DHT22;276;48.392;9.950;2023-12-22T15:27:25;9.90;99.90
580;DHT22;276;48.392;9.950;2023-12-22T15:29:52;9.90;99.90
580;DHT22;276;48.392;9.950;2023-12-22T15:32:19;10.00;99.90
580;DHT22;276;48.392;9.950;2023-12-22T15:34:47;10.00;99.90
580;DHT22;276;48.392;9.950;2023-12-22T15:37:12;10.00;99.90
580;DHT22;276;48.392;9.950;2023-12-22T15:39:40;9.90;99.90
580;DHT22;276;48.392;9.950;2023-12-22T15:42:08;10.00;99.90
580;DHT22;276;48.392;9.950;2023-12-22T15:44:39;9.90;99.90
580;DHT22;276;48.392;9.950;2023-12-22T15:47:05;9.90;99.90
580;DHT22;276;48.392;9.950;2023-12-22T15:49:36;10.00;99.90
580;DHT22;276;48.392;9.950;2023-12-22T15:52:04;10.00;99.90
580;DHT22;276;48.392;9.950;2023-12-22T15:54:33;10.10;99.90
580;DHT22;276;48.392;9.950;2023-12-22T15:57:02;10.10;99.90
580;DHT22;276;48.392;9.950;2023-12-22T15:59:27;10.00;99.90
580;DHT22;276;48.392;9.950;2023-12-22T16:01:53;10.00;99.90
580;DHT22;276;48.392;9.950;2023-12-22T16:04:21;10.00;99.90
580;DHT22;276;48.392;9.950;2023-12-22T16:06:46;10.00;99.90
580;DHT22;276;48.392;9.950;2023-12-22T16:09:12;10.00;99.90
580;DHT22;276;48.392;9.950;2023-12-22T16:11:39;10.00;99.90
580;DHT22;276;48.392;9.950;2023-12-22T16:14:04;10.00;99.90
580;DHT22;276;48.392;9.950;2023-12-22T16:16:31;10.00;99.90
580;DHT22;276;48.392;9.950;2023-12-22T16:18:59;10.00;99.90
580;DHT22;276;48.392;9.950;2023-12-22T16:21:29;10.00;99.90
580;DHT22;276;48.392;9.950;2023-12-22T16:23:57;10.10;99.90
580;DHT22;276;48.392;9.950;2023-12-22T16:26:22;10.00;99.90
580;DHT22;276;48.392;9.950;2023-12-22T16:28:48;10.10;99.90
580;DHT22;276;48.392;9.950;2023-12-22T16:31:16;10.10;99.90
580;DHT22;276;48.392;9.950;2023-12-22T16:33:42;10.10;99.90
580;DHT22;276;48.392;9.950;2023-12-22T16:36:13;10.10;99.90
580;DHT22;276;48.392;9.950;2023-12-22T16:38:40;10.10;99.90
580;DHT22;276;48.392;9.950;2023-12-22T16:41:06;10.10;99.90
580;DHT22;276;48.392;9.950;2023-12-22T16:43:35;10.10;99.90
580;DHT22;276;48.392;9.950;2023-12-22T16:46:03;10.00;99.90
580;DHT22;276;48.392;9.950;2023-12-22T16:48:28;10.00;99.90
580;DHT22;276;48.392;9.950;2023-12-22T16:50:59;10.00;99.90
580;DHT22;276;48.392;9.950;2023-12-22T16:53:25;10.00;99.90
580;DHT22;276;48.392;9.950;2023-12-22T16:55:51;10.00;99.90
580;DHT22;276;48.392;9.950;2023-12-22T16:58:16;10.00;99.90
580;DHT22;276;48.392;9.950;2023-12-22T17:00:42;10.00;99.90
580;DHT22;276;48.392;9.950;2023-12-22T17:03:07;10.10;99.90
580;DHT22;276;48.392;9.950;2023-12-22T17:05:35;10.00;99.90
580;DHT22;276;48.392;9.950;2023-12-22T17:08:01;10.00;99.90